sensor_id;sensor_type;location;lat;lon;timestamp;pressure;altitude;pressure_sealevel;temperature;humidity
69035;BME280;56091;55.756;37.412;2023-02-19T00:03:05;97391.88;;;-6.09;68.99
69035;BME280;56091;55.756;37.412;2023-02-19T00:08:06;97392.94;;;-6.03;69.15
69035;BME280;56091;55.756;37.412;2023-02-19T00:13:07;97374.72;;;-6.04;68.31
69035;BME280;56091;55.756;37.412;2023-02-19T00:18:10;97374.91;;;-6.13;68.69
69035;BME280;56091;55.756;37.412;2023-02-19T00:23:11;97367.25;;;-6.07;68.51
69035;BME280;56091;55.756;37.412;2023-02-19T00:28:12;97362.19;;;-6.09;68.19
69035;BME280;56091;55.756;37.412;2023-02-19T00:33:13;97332.41;;;-6.30;68.19
69035;BME280;56091;55.756;37.412;2023-02-19T00:38:14;97362.34;;;-6.17;68.68
69035;BME280;56091;55.756;37.412;2023-02-19T00:43:15;97310.78;;;-6.38;68.51
69035;BME280;56091;55.756;37.412;2023-02-19T00:48:16;97336.34;;;-6.05;69.31
69035;BME280;56091;55.756;37.412;2023-02-19T00:53:19;97340.19;;;-6.08;69.40
69035;BME280;56091;55.756;37.412;2023-02-19T00:58:21;97329.63;;;-6.21;69.51
69035;BME280;56091;55.756;37.412;2023-02-19T01:03:25;97319.53;;;-6.18;69.17
69035;BME280;56091;55.756;37.412;2023-02-19T01:08:26;97312.91;;;-6.14;68.61
69035;BME280;56091;55.756;37.412;2023-02-19T01:13:27;97317.75;;;-6.11;68.68
69035;BME280;56091;55.756;37.412;2023-02-19T01:18:30;97305.41;;;-6.17;68.55
69035;BME280;56091;55.756;37.412;2023-02-19T01:23:30;97310.44;;;-6.22;69.34
69035;BME280;56091;55.756;37.412;2023-02-19T01:28:31;97291.84;;;-6.20;69.59
69035;BME280;56091;55.756;37.412;2023-02-19T01:33:33;97287.44;;;-6.20;69.87
69035;BME280;56091;55.756;37.412;2023-02-19T01:38:33;97286.19;;;-6.31;70.08
69035;BME280;56091;55.756;37.412;2023-02-19T01:43:55;97287.59;;;-6.28;69.16
69035;BME280;56091;55.756;37.412;2023-02-19T01:48:59;97267.94;;;-6.52;69.58
69035;BME280;56091;55.756;37.412;2023-02-19T01:54:04;97286.53;;;-6.40;69.38
69035;BME280;56091;55.756;37.412;2023-02-19T01:59:09;97289.34;;;-6.42;69.43
69035;BME280;56091;55.756;37.412;2023-02-19T02:04:11;97283.72;;;-6.39;68.95
69035;BME280;56091;55.756;37.412;2023-02-19T02:09:13;97279.03;;;-6.43;69.21
69035;BME280;56091;55.756;37.412;2023-02-19T02:14:35;97280.44;;;-6.48;69.79
69035;BME280;56091;55.756;37.412;2023-02-19T02:20:11;97282.88;;;-6.46;69.56
69035;BME280;56091;55.756;37.412;2023-02-19T02:31:14;97278.78;;;-6.62;70.10
69035;BME280;56091;55.756;37.412;2023-02-19T02:36:22;97275.94;;;-6.60;70.37
69035;BME280;56091;55.756;37.412;2023-02-19T02:41:25;97253.84;;;-6.79;70.81
69035;BME280;56091;55.756;37.412;2023-02-19T02:46:33;97261.75;;;-6.73;70.88
69035;BME280;56091;55.756;37.412;2023-02-19T02:51:42;97258.72;;;-6.76;70.41
69035;BME280;56091;55.756;37.412;2023-02-19T02:56:55;97268.44;;;-6.70;70.31
69035;BME280;56091;55.756;37.412;2023-02-19T03:02:06;97266.84;;;-6.64;70.41
69035;BME280;56091;55.756;37.412;2023-02-19T03:07:10;97266.84;;;-6.64;69.66
69035;BME280;56091;55.756;37.412;2023-02-19T03:12:14;97264.06;;;-6.56;70.21
69035;BME280;56091;55.756;37.412;2023-02-19T03:17:44;97235.84;;;-6.54;70.81
69035;BME280;56091;55.756;37.412;2023-02-19T03:23:08;97245.50;;;-6.55;71.26
69035;BME280;56091;55.756;37.412;2023-02-19T03:28:11;97238.78;;;-6.64;72.08
69035;BME280;56091;55.756;37.412;2023-02-19T03:33:20;97236.16;;;-6.64;72.79
69035;BME280;56091;55.756;37.412;2023-02-19T03:38:36;97230.38;;;-6.53;72.39
69035;BME280;56091;55.756;37.412;2023-02-19T03:43:46;97232.31;;;-6.75;72.91
69035;BME280;56091;55.756;37.412;2023-02-19T03:49:04;97236.94;;;-6.70;72.69
69035;BME280;56091;55.756;37.412;2023-02-19T03:54:33;97225.28;;;-6.68;72.28
69035;BME280;56091;55.756;37.412;2023-02-19T03:59:47;97220.41;;;-6.71;72.32
69035;BME280;56091;55.756;37.412;2023-02-19T04:10:21;97217.03;;;-6.58;72.16
69035;BME280;56091;55.756;37.412;2023-02-19T04:15:29;97188.09;;;-6.78;71.63
69035;BME280;56091;55.756;37.412;2023-02-19T04:20:37;97181.16;;;-6.99;71.74
69035;BME280;56091;55.756;37.412;2023-02-19T04:25:41;97215.66;;;-6.89;72.72
69035;BME280;56091;55.756;37.412;2023-02-19T04:30:43;97207.13;;;-6.69;72.97
69035;BME280;56091;55.756;37.412;2023-02-19T04:35:44;97205.84;;;-6.80;73.19
69035;BME280;56091;55.756;37.412;2023-02-19T04:40:46;97213.94;;;-6.75;72.89
69035;BME280;56091;55.756;37.412;2023-02-19T04:45:50;97210.34;;;-6.67;73.45
69035;BME280;56091;55.756;37.412;2023-02-19T04:50:51;97216.56;;;-6.75;72.82
69035;BME280;56091;55.756;37.412;2023-02-19T04:55:52;97199.63;;;-5.84;73.78
69035;BME280;56091;55.756;37.412;2023-02-19T05:00:53;97195.59;;;-5.46;69.87
69035;BME280;56091;55.756;37.412;2023-02-19T05:05:54;97195.56;;;-5.86;70.63
69035;BME280;56091;55.756;37.412;2023-02-19T05:11:01;97176.59;;;-6.22;71.54
69035;BME280;56091;55.756;37.412;2023-02-19T05:16:09;97182.22;;;-6.32;71.76
69035;BME280;56091;55.756;37.412;2023-02-19T05:21:21;97184.81;;;-6.38;72.60
69035;BME280;56091;55.756;37.412;2023-02-19T05:26:22;97175.50;;;-6.48;72.25
69035;BME280;56091;55.756;37.412;2023-02-19T05:31:23;97179.75;;;-6.40;72.60
69035;BME280;56091;55.756;37.412;2023-02-19T05:36:24;97170.94;;;-6.25;72.68
69035;BME280;56091;55.756;37.412;2023-02-19T05:41:29;97168.94;;;-5.97;73.93
69035;BME280;56091;55.756;37.412;2023-02-19T05:46:30;97171.13;;;-6.07;71.40
69035;BME280;56091;55.756;37.412;2023-02-19T05:51:30;97175.00;;;-6.03;71.26
69035;BME280;56091;55.756;37.412;2023-02-19T05:56:39;97129.31;;;-6.35;70.34
69035;BME280;56091;55.756;37.412;2023-02-19T06:01:41;97153.31;;;-6.38;71.20
69035;BME280;56091;55.756;37.412;2023-02-19T06:06:42;97178.38;;;-6.22;71.35
69035;BME280;56091;55.756;37.412;2023-02-19T06:11:42;97173.38;;;-6.04;70.79
69035;BME280;56091;55.756;37.412;2023-02-19T06:16:44;97167.09;;;-6.10;69.84
69035;BME280;56091;55.756;37.412;2023-02-19T06:21:49;97159.44;;;-6.11;69.69
69035;BME280;56091;55.756;37.412;2023-02-19T06:26:50;97166.09;;;-5.89;69.17
69035;BME280;56091;55.756;37.412;2023-02-19T06:31:51;97150.16;;;-6.00;69.53
69035;BME280;56091;55.756;37.412;2023-02-19T06:36:51;97174.16;;;-5.63;69.30
69035;BME280;56091;55.756;37.412;2023-02-19T06:41:56;97157.19;;;-5.47;68.88
69035;BME280;56091;55.756;37.412;2023-02-19T06:47:00;97155.97;;;-5.45;68.09
69035;BME280;56091;55.756;37.412;2023-02-19T06:52:04;97160.41;;;-5.52;68.62
69035;BME280;56091;55.756;37.412;2023-02-19T06:57:05;97128.88;;;-5.52;68.41
69035;BME280;56091;55.756;37.412;2023-02-19T07:02:06;97132.09;;;-5.23;67.57
69035;BME280;56091;55.756;37.412;2023-02-19T07:07:09;97127.50;;;-5.48;67.39
69035;BME280;56091;55.756;37.412;2023-02-19T07:12:11;97119.56;;;-5.35;67.46
69035;BME280;56091;55.756;37.412;2023-02-19T07:17:12;97117.19;;;-5.50;68.36
69035;BME280;56091;55.756;37.412;2023-02-19T07:22:13;97123.25;;;-5.62;67.87
69035;BME280;56091;55.756;37.412;2023-02-19T07:27:14;97112.75;;;-5.62;68.39
69035;BME280;56091;55.756;37.412;2023-02-19T07:32:15;97108.69;;;-5.58;69.52
69035;BME280;56091;55.756;37.412;2023-02-19T07:37:15;97101.38;;;-5.43;71.56
69035;BME280;56091;55.756;37.412;2023-02-19T07:42:16;97086.72;;;-4.99;68.33
69035;BME280;56091;55.756;37.412;2023-02-19T07:47:17;97102.09;;;-4.64;68.27
69035;BME280;56091;55.756;37.412;2023-02-19T07:52:18;97081.97;;;-4.20;66.12
69035;BME280;56091;55.756;37.412;2023-02-19T07:57:21;97086.78;;;-4.10;65.30
69035;BME280;56091;55.756;37.412;2023-02-19T08:02:22;97091.72;;;-3.95;65.29
69035;BME280;56091;55.756;37.412;2023-02-19T08:07:42;97087.06;;;-3.68;64.19
69035;BME280;56091;55.756;37.412;2023-02-19T08:12:43;97090.16;;;-3.78;63.47
69035;BME280;56091;55.756;37.412;2023-02-19T08:18:02;97080.59;;;-4.22;62.62
69035;BME280;56091;55.756;37.412;2023-02-19T08:23:03;97075.38;;;-4.61;63.83
69035;BME280;56091;55.756;37.412;2023-02-19T08:28:05;97077.75;;;-4.53;64.80
69035;BME280;56091;55.756;37.412;2023-02-19T08:33:07;97073.09;;;-4.51;64.68
69035;BME280;56091;55.756;37.412;2023-02-19T08:38:09;97070.19;;;-4.42;64.34
69035;BME280;56091;55.756;37.412;2023-02-19T08:43:13;97069.34;;;-4.68;64.92
69035;BME280;56091;55.756;37.412;2023-02-19T08:48:14;97069.81;;;-4.78;65.11
69035;BME280;56091;55.756;37.412;2023-02-19T08:53:15;97068.50;;;-4.62;65.61
69035;BME280;56091;55.756;37.412;2023-02-19T08:58:16;97048.84;;;-4.59;63.94
69035;BME280;56091;55.756;37.412;2023-02-19T09:03:17;97058.53;;;-4.53;64.88
69035;BME280;56091;55.756;37.412;2023-02-19T09:08:18;96987.81;;;-5.06;64.88
69035;BME280;56091;55.756;37.412;2023-02-19T09:13:19;97048.16;;;-4.80;64.66
69035;BME280;56091;55.756;37.412;2023-02-19T09:18:19;97046.53;;;-4.81;65.11
69035;BME280;56091;55.756;37.412;2023-02-19T09:23:23;97016.25;;;-4.90;64.99
69035;BME280;56091;55.756;37.412;2023-02-19T09:28:24;97038.53;;;-4.61;65.23
69035;BME280;56091;55.756;37.412;2023-02-19T09:33:37;97038.69;;;-4.56;65.71
69035;BME280;56091;55.756;37.412;2023-02-19T09:38:38;97045.78;;;-4.56;65.40
69035;BME280;56091;55.756;37.412;2023-02-19T09:43:42;97027.28;;;-4.43;65.75
69035;BME280;56091;55.756;37.412;2023-02-19T09:48:44;97029.38;;;-4.26;64.76
69035;BME280;56091;55.756;37.412;2023-02-19T09:53:46;97026.75;;;-4.01;64.36
69035;BME280;56091;55.756;37.412;2023-02-19T09:58:51;96995.72;;;-3.99;64.15
69035;BME280;56091;55.756;37.412;2023-02-19T10:03:53;97009.47;;;-3.97;63.51
69035;BME280;56091;55.756;37.412;2023-02-19T10:09:22;97015.66;;;-3.85;63.46
69035;BME280;56091;55.756;37.412;2023-02-19T10:14:29;97013.91;;;-3.73;64.15
69035;BME280;56091;55.756;37.412;2023-02-19T10:19:35;97008.75;;;-3.86;63.47
69035;BME280;56091;55.756;37.412;2023-02-19T10:24:39;97004.91;;;-3.65;62.94
69035;BME280;56091;55.756;37.412;2023-02-19T10:29:45;97018.53;;;-3.68;62.70
69035;BME280;56091;55.756;37.412;2023-02-19T10:35:09;97018.59;;;-3.75;62.81
69035;BME280;56091;55.756;37.412;2023-02-19T10:40:22;97014.91;;;-3.92;62.90
69035;BME280;56091;55.756;37.412;2023-02-19T10:45:37;96975.06;;;-4.02;63.19
69035;BME280;56091;55.756;37.412;2023-02-19T10:50:39;96995.88;;;-3.76;62.77
69035;BME280;56091;55.756;37.412;2023-02-19T10:55:46;96981.19;;;-3.46;63.45
69035;BME280;56091;55.756;37.412;2023-02-19T11:06:15;96991.41;;;-2.47;60.02
69035;BME280;56091;55.756;37.412;2023-02-19T11:11:32;96992.72;;;-2.26;59.81
69035;BME280;56091;55.756;37.412;2023-02-19T11:16:42;96986.25;;;-2.54;59.79
69035;BME280;56091;55.756;37.412;2023-02-19T11:21:44;96974.06;;;-3.27;60.16
69035;BME280;56091;55.756;37.412;2023-02-19T11:26:45;96986.72;;;-3.18;61.55
69035;BME280;56091;55.756;37.412;2023-02-19T11:31:46;96977.75;;;-3.47;60.42
69035;BME280;56091;55.756;37.412;2023-02-19T11:36:53;96983.25;;;-3.67;60.77
69035;BME280;56091;55.756;37.412;2023-02-19T12:14:37;96967.19;;;-4.02;62.35
69035;BME280;56091;55.756;37.412;2023-02-19T12:41:44;96979.16;;;-4.25;64.28
69035;BME280;56091;55.756;37.412;2023-02-19T12:46:52;96984.19;;;-4.23;63.40
69035;BME280;56091;55.756;37.412;2023-02-19T12:52:05;96979.47;;;-4.40;63.69
69035;BME280;56091;55.756;37.412;2023-02-19T13:02:21;96977.75;;;-4.27;64.43
69035;BME280;56091;55.756;37.412;2023-02-19T13:07:41;96983.97;;;-4.22;64.24
69035;BME280;56091;55.756;37.412;2023-02-19T13:12:45;96982.41;;;-4.29;65.36
69035;BME280;56091;55.756;37.412;2023-02-19T13:17:56;96971.31;;;-4.32;65.34
69035;BME280;56091;55.756;37.412;2023-02-19T13:28:45;96981.16;;;-4.45;67.06
69035;BME280;56091;55.756;37.412;2023-02-19T13:33:57;96984.41;;;-4.50;67.26
69035;BME280;56091;55.756;37.412;2023-02-19T13:39:04;96972.09;;;-4.56;66.99
69035;BME280;56091;55.756;37.412;2023-02-19T13:44:12;96981.66;;;-4.62;67.61
69035;BME280;56091;55.756;37.412;2023-02-19T13:59:40;96984.28;;;-4.62;69.11
69035;BME280;56091;55.756;37.412;2023-02-19T14:09:52;96974.16;;;-4.90;68.99
69035;BME280;56091;55.756;37.412;2023-02-19T14:14:54;96944.78;;;-5.12;70.08
69035;BME280;56091;55.756;37.412;2023-02-19T14:20:02;96964.97;;;-5.06;70.66
69035;BME280;56091;55.756;37.412;2023-02-19T14:25:08;96952.91;;;-5.20;70.91
69035;BME280;56091;55.756;37.412;2023-02-19T14:30:14;96961.56;;;-5.13;71.15
69035;BME280;56091;55.756;37.412;2023-02-19T14:35:20;96962.94;;;-5.04;71.64
69035;BME280;56091;55.756;37.412;2023-02-19T14:40:27;96941.09;;;-5.04;72.58
69035;BME280;56091;55.756;37.412;2023-02-19T14:45:39;96950.97;;;-5.00;72.49
69035;BME280;56091;55.756;37.412;2023-02-19T14:50:47;96935.53;;;-5.21;72.63
69035;BME280;56091;55.756;37.412;2023-02-19T14:55:50;96926.69;;;-5.34;72.99
69035;BME280;56091;55.756;37.412;2023-02-19T15:00:52;96939.75;;;-5.20;72.30
69035;BME280;56091;55.756;37.412;2023-02-19T15:05:55;96930.72;;;-5.31;72.84
69035;BME280;56091;55.756;37.412;2023-02-19T15:10:58;96946.00;;;-5.15;72.63
69035;BME280;56091;55.756;37.412;2023-02-19T15:16:00;96944.41;;;-5.22;72.58
69035;BME280;56091;55.756;37.412;2023-02-19T15:21:03;96944.63;;;-5.24;73.19
69035;BME280;56091;55.756;37.412;2023-02-19T15:26:19;96943.63;;;-5.30;73.04
69035;BME280;56091;55.756;37.412;2023-02-19T15:31:20;96913.16;;;-5.37;74.19
69035;BME280;56091;55.756;37.412;2023-02-19T15:36:29;96932.25;;;-5.17;74.12
69035;BME280;56091;55.756;37.412;2023-02-19T15:41:36;96930.88;;;-5.19;73.50
69035;BME280;56091;55.756;37.412;2023-02-19T15:46:39;96924.75;;;-5.13;73.55
69035;BME280;56091;55.756;37.412;2023-02-19T15:56:49;96923.47;;;-4.72;71.22
69035;BME280;56091;55.756;37.412;2023-02-19T16:01:51;96921.06;;;-4.80;71.27
69035;BME280;56091;55.756;37.412;2023-02-19T16:06:59;96912.09;;;-4.98;71.67
69035;BME280;56091;55.756;37.412;2023-02-19T16:12:17;96909.94;;;-5.07;70.73
69035;BME280;56091;55.756;37.412;2023-02-19T16:17:20;96923.13;;;-5.14;71.51
69035;BME280;56091;55.756;37.412;2023-02-19T16:22:24;96902.16;;;-5.21;71.12
69035;BME280;56091;55.756;37.412;2023-02-19T16:32:30;96921.94;;;-5.18;72.25
69035;BME280;56091;55.756;37.412;2023-02-19T16:37:55;96897.53;;;-5.25;72.71
69035;BME280;56091;55.756;37.412;2023-02-19T16:48:07;96893.84;;;-5.18;72.99
69035;BME280;56091;55.756;37.412;2023-02-19T16:53:23;96908.78;;;-5.12;72.95
69035;BME280;56091;55.756;37.412;2023-02-19T16:58:25;96903.53;;;-5.18;73.24
69035;BME280;56091;55.756;37.412;2023-02-19T17:03:29;96891.06;;;-5.30;73.45
69035;BME280;56091;55.756;37.412;2023-02-19T17:08:41;96907.13;;;-5.06;73.98
69035;BME280;56091;55.756;37.412;2023-02-19T17:13:44;96888.81;;;-5.19;73.82
69035;BME280;56091;55.756;37.412;2023-02-19T17:18:46;96903.81;;;-4.95;73.85
69035;BME280;56091;55.756;37.412;2023-02-19T17:23:48;96905.84;;;-4.97;73.74
69035;BME280;56091;55.756;37.412;2023-02-19T17:28:49;96881.72;;;-5.19;73.92
69035;BME280;56091;55.756;37.412;2023-02-19T17:33:50;96876.25;;;-5.17;74.47
69035;BME280;56091;55.756;37.412;2023-02-19T17:39:01;96875.38;;;-5.11;74.32
69035;BME280;56091;55.756;37.412;2023-02-19T17:44:02;96897.50;;;-4.94;74.12
69035;BME280;56091;55.756;37.412;2023-02-19T17:49:03;96899.13;;;-4.93;74.19
69035;BME280;56091;55.756;37.412;2023-02-19T17:54:04;96883.97;;;-4.97;74.38
69035;BME280;56091;55.756;37.412;2023-02-19T17:59:05;96880.63;;;-5.04;74.12
69035;BME280;56091;55.756;37.412;2023-02-19T18:04:05;96879.53;;;-4.97;74.06
69035;BME280;56091;55.756;37.412;2023-02-19T18:09:06;96884.03;;;-5.04;73.73
69035;BME280;56091;55.756;37.412;2023-02-19T18:14:07;96882.41;;;-5.05;74.29
69035;BME280;56091;55.756;37.412;2023-02-19T18:19:08;96826.50;;;-5.44;74.23
69035;BME280;56091;55.756;37.412;2023-02-19T18:24:09;96879.06;;;-5.12;74.69
69035;BME280;56091;55.756;37.412;2023-02-19T18:29:11;96874.16;;;-5.08;74.21
69035;BME280;56091;55.756;37.412;2023-02-19T18:34:17;96874.38;;;-5.10;74.22
69035;BME280;56091;55.756;37.412;2023-02-19T18:39:19;96875.19;;;-5.10;74.02
69035;BME280;56091;55.756;37.412;2023-02-19T18:44:21;96868.25;;;-5.04;74.35
69035;BME280;56091;55.756;37.412;2023-02-19T18:49:23;96862.66;;;-5.14;74.21
69035;BME280;56091;55.756;37.412;2023-02-19T18:54:24;96877.59;;;-5.08;74.99
69035;BME280;56091;55.756;37.412;2023-02-19T18:59:26;96868.78;;;-4.95;75.15
69035;BME280;56091;55.756;37.412;2023-02-19T19:04:27;96872.75;;;-5.11;74.52
69035;BME280;56091;55.756;37.412;2023-02-19T19:09:27;96862.06;;;-5.16;74.93
69035;BME280;56091;55.756;37.412;2023-02-19T19:14:28;96855.16;;;-5.11;75.01
69035;BME280;56091;55.756;37.412;2023-02-19T19:19:29;96856.94;;;-5.04;74.91
69035;BME280;56091;55.756;37.412;2023-02-19T19:24:29;96864.97;;;-4.99;74.74
69035;BME280;56091;55.756;37.412;2023-02-19T19:29:30;96854.84;;;-4.96;74.76
69035;BME280;56091;55.756;37.412;2023-02-19T19:34:31;96842.72;;;-4.97;74.66
69035;BME280;56091;55.756;37.412;2023-02-19T19:39:32;96852.09;;;-5.07;73.89
69035;BME280;56091;55.756;37.412;2023-02-19T19:44:32;96862.78;;;-5.02;74.86
69035;BME280;56091;55.756;37.412;2023-02-19T19:49:33;96859.88;;;-5.19;74.85
69035;BME280;56091;55.756;37.412;2023-02-19T19:54:34;96852.59;;;-5.17;75.55
69035;BME280;56091;55.756;37.412;2023-02-19T19:59:35;96851.22;;;-4.51;76.44
69035;BME280;56091;55.756;37.412;2023-02-19T20:04:38;96846.88;;;-4.64;72.25
69035;BME280;56091;55.756;37.412;2023-02-19T20:09:40;96863.47;;;-4.63;73.21
69035;BME280;56091;55.756;37.412;2023-02-19T20:14:45;96858.53;;;-4.78;73.16
69035;BME280;56091;55.756;37.412;2023-02-19T20:19:46;96861.03;;;-4.83;73.29
69035;BME280;56091;55.756;37.412;2023-02-19T20:24:54;96828.47;;;-5.14;73.20
69035;BME280;56091;55.756;37.412;2023-02-19T20:29:55;96856.09;;;-4.98;74.22
69035;BME280;56091;55.756;37.412;2023-02-19T20:34:55;96846.56;;;-4.99;74.31
69035;BME280;56091;55.756;37.412;2023-02-19T20:39:57;96848.56;;;-4.95;74.32
69035;BME280;56091;55.756;37.412;2023-02-19T20:45:01;96855.81;;;-5.15;74.37
69035;BME280;56091;55.756;37.412;2023-02-19T20:50:06;96851.72;;;-5.11;74.94
69035;BME280;56091;55.756;37.412;2023-02-19T20:55:08;96853.84;;;-4.95;74.62
69035;BME280;56091;55.756;37.412;2023-02-19T21:00:11;96855.44;;;-4.94;74.26
69035;BME280;56091;55.756;37.412;2023-02-19T21:05:15;96842.75;;;-5.03;75.25
69035;BME280;56091;55.756;37.412;2023-02-19T21:10:17;96851.78;;;-4.93;75.12
69035;BME280;56091;55.756;37.412;2023-02-19T21:15:17;96840.41;;;-4.86;75.29
69035;BME280;56091;55.756;37.412;2023-02-19T21:20:19;96851.03;;;-4.75;74.59
69035;BME280;56091;55.756;37.412;2023-02-19T21:25:20;96846.41;;;-4.79;75.06
69035;BME280;56091;55.756;37.412;2023-02-19T21:30:21;96849.47;;;-4.82;75.22
69035;BME280;56091;55.756;37.412;2023-02-19T21:35:21;96850.25;;;-4.82;74.91
69035;BME280;56091;55.756;37.412;2023-02-19T21:40:22;96844.00;;;-4.81;74.93
69035;BME280;56091;55.756;37.412;2023-02-19T21:45:23;96850.72;;;-4.85;74.71
69035;BME280;56091;55.756;37.412;2023-02-19T21:50:25;96842.50;;;-4.95;75.15
69035;BME280;56091;55.756;37.412;2023-02-19T21:55:26;96825.41;;;-5.04;75.07
69035;BME280;56091;55.756;37.412;2023-02-19T22:00:28;96857.94;;;-4.80;75.36
69035;BME280;56091;55.756;37.412;2023-02-19T22:05:30;96843.41;;;-4.83;75.04
69035;BME280;56091;55.756;37.412;2023-02-19T22:10:31;96851.69;;;-4.79;75.41
69035;BME280;56091;55.756;37.412;2023-02-19T22:15:32;96844.97;;;-4.75;75.70
69035;BME280;56091;55.756;37.412;2023-02-19T22:20:36;96840.06;;;-4.72;75.10
69035;BME280;56091;55.756;37.412;2023-02-19T22:25:38;96841.34;;;-4.56;75.10
69035;BME280;56091;55.756;37.412;2023-02-19T22:30:39;96849.38;;;-4.51;75.03
69035;BME280;56091;55.756;37.412;2023-02-19T22:35:42;96845.75;;;-4.49;74.98
69035;BME280;56091;55.756;37.412;2023-02-19T22:40:43;96849.44;;;-4.57;74.85
69035;BME280;56091;55.756;37.412;2023-02-19T22:45:43;96840.53;;;-4.56;75.00
69035;BME280;56091;55.756;37.412;2023-02-19T22:50:49;96848.72;;;-4.64;74.79
69035;BME280;56091;55.756;37.412;2023-02-19T22:55:50;96833.53;;;-4.62;75.17
69035;BME280;56091;55.756;37.412;2023-02-19T23:00:51;96831.09;;;-4.64;74.86
69035;BME280;56091;55.756;37.412;2023-02-19T23:05:52;96854.28;;;-4.54;74.86
69035;BME280;56091;55.756;37.412;2023-02-19T23:10:56;96854.88;;;-4.52;75.04
69035;BME280;56091;55.756;37.412;2023-02-19T23:15:58;96855.56;;;-4.63;74.93
69035;BME280;56091;55.756;37.412;2023-02-19T23:21:00;96855.00;;;-4.65;74.73
69035;BME280;56091;55.756;37.412;2023-02-19T23:26:01;96848.94;;;-4.66;74.65
69035;BME280;56091;55.756;37.412;2023-02-19T23:31:02;96863.84;;;-4.60;74.95
69035;BME280;56091;55.756;37.412;2023-02-19T23:36:04;96858.66;;;-4.66;74.94
69035;BME280;56091;55.756;37.412;2023-02-19T23:41:10;96864.59;;;-4.53;75.53
69035;BME280;56091;55.756;37.412;2023-02-19T23:46:16;96866.81;;;-4.49;74.97
69035;BME280;56091;55.756;37.412;2023-02-19T23:51:17;96861.66;;;-4.44;74.90
69035;BME280;56091;55.756;37.412;2023-02-19T23:56:26;96871.97;;;-4.43;74.66
